Time;durP1;ratioP1;P1;durP2;ratioP2;P2;SDS_P1;SDS_P2;PMS_P1;PMS_P2;Temp;Humidity;BMP_temperature;BMP_pressure;BME280_temperature;BME280_humidity;BME280_pressure;Samples;Min_cycle;Max_cycle;Signal;HPM_P1;HPM_P2
2023/09/10 00:02:02;;;;;;;18.55;8.18;;;21.80;99.90;;;;;;5072978;28;20170;-47
2023/09/10 00:04:27;;;;;;;8.55;7.40;;;21.80;99.90;;;;;;5072436;28;20162;-47
2023/09/10 00:06:53;;;;;;;12.32;7.15;;;21.80;99.90;;;;;;5072744;28;20219;-47
2023/09/10 00:09:19;;;;;;;14.95;7.68;;;21.80;99.90;;;;;;5072748;28;20177;-47
2023/09/10 00:11:45;;;;;;;11.40;7.47;;;21.80;99.90;;;;;;5072618;28;20685;-47
2023/09/10 00:14:11;;;;;;;12.98;8.52;;;;;;;;;;5072674;28;20178;-47
2023/09/10 00:16:36;;;;;;;14.52;8.48;;;21.80;99.90;;;;;;5071985;28;20543;-47
2023/09/10 00:19:02;;;;;;;16.60;8.35;;;21.70;99.90;;;;;;5073178;28;20169;-47
2023/09/10 00:21:28;;;;;;;16.60;8.18;;;21.70;99.90;;;;;;5072477;28;20185;-49
2023/09/10 00:23:53;;;;;;;11.57;8.52;;;21.70;99.90;;;;;;5072730;28;20231;-47
2023/09/10 00:26:19;;;;;;;17.27;8.57;;;21.50;99.90;;;;;;5072307;28;20252;-44
2023/09/10 00:28:44;;;;;;;16.95;8.32;;;21.50;99.90;;;;;;5072611;28;20196;-44
2023/09/10 00:31:10;;;;;;;16.02;8.10;;;21.60;99.90;;;;;;5072656;28;20532;-44
2023/09/10 00:33:35;;;;;;;15.00;8.20;;;21.60;99.90;;;;;;5072554;28;20162;-44
2023/09/10 00:36:01;;;;;;;13.75;8.32;;;21.60;99.90;;;;;;5072217;28;20166;-44
2023/09/10 00:38:26;;;;;;;17.60;7.90;;;21.50;99.90;;;;;;5072394;28;20166;-44
2023/09/10 00:40:52;;;;;;;12.98;7.97;;;21.40;99.90;;;;;;5072359;28;20572;-44
2023/09/10 00:43:17;;;;;;;13.00;8.15;;;21.30;99.90;;;;;;5072124;28;20170;-45
2023/09/10 00:45:43;;;;;;;43.45;22.55;;;21.30;99.90;;;;;;5071805;28;20708;-47
2023/09/10 00:48:09;;;;;;;49.92;22.15;;;21.30;99.90;;;;;;5072434;28;20522;-45
2023/09/10 00:50:35;;;;;;;34.40;17.05;;;21.30;99.90;;;;;;5072005;28;20189;-45
2023/09/10 00:53:01;;;;;;;16.55;10.65;;;21.20;99.90;;;;;;5071840;28;20204;-44
2023/09/10 00:55:29;;;;;;;16.38;9.95;;;21.30;99.90;;;;;;5071843;28;20177;-44
2023/09/10 00:57:55;;;;;;;20.92;11.50;;;21.30;99.90;;;;;;5072094;28;20252;-44
2023/09/10 01:00:21;;;;;;;20.77;11.75;;;21.30;99.90;;;;;;5071791;28;20212;-44
2023/09/10 01:02:49;;;;;;;13.30;10.15;;;21.30;99.90;;;;;;5071743;28;20689;-45
2023/09/10 01:05:16;;;;;;;11.93;9.18;;;21.30;99.90;;;;;;5071633;28;20205;-44
2023/09/10 01:07:41;;;;;;;19.25;9.50;;;21.30;99.90;;;;;;5071691;28;20678;-44
2023/09/10 01:10:08;;;;;;;18.05;9.98;;;21.30;99.90;;;;;;5072081;28;20201;-44
2023/09/10 01:13:01;;;;;;;21.05;12.85;;;21.20;99.90;;;;;;5072008;28;20166;-44
2023/09/10 01:15:34;;;;;;;25.33;11.55;;;21.10;99.90;;;;;;5071566;28;20170;-44
2023/09/10 01:18:20;;;;;;;28.25;17.02;;;21.10;99.90;;;;;;5071779;28;20188;-44
2023/09/10 01:21:17;;;;;;;20.45;12.68;;;21.10;99.90;;;;;;5071235;28;20173;-44
2023/09/10 01:24:07;;;;;;;25.83;14.30;;;21.10;99.90;;;;;;5071574;28;20153;-44
2023/09/10 01:26:36;;;;;;;22.85;14.20;;;21.10;99.90;;;;;;5071408;28;20205;-44
2023/09/10 01:29:04;;;;;;;11.52;8.63;;;21.10;99.90;;;;;;5071102;28;20273;-45
2023/09/10 01:31:33;;;;;;;15.98;9.02;;;21.00;99.90;;;;;;5071686;28;20177;-44
2023/09/10 01:34:03;;;;;;;16.77;9.63;;;21.00;99.90;;;;;;5071317;28;20531;-45
2023/09/10 01:36:41;;;;;;;13.68;8.20;;;21.00;99.90;;;;;;5071368;28;20174;-44
2023/09/10 01:39:25;;;;;;;11.73;8.60;;;21.00;99.90;;;;;;5070628;28;20170;-45
2023/09/10 01:41:52;;;;;;;14.07;8.32;;;20.90;99.90;;;;;;5071597;28;20247;-44
2023/09/10 01:44:19;;;;;;;14.60;8.95;;;20.90;99.90;;;;;;5071088;28;20209;-44
2023/09/10 01:46:46;;;;;;;11.77;8.75;;;20.80;99.90;;;;;;5071292;28;20182;-44
2023/09/10 01:49:12;;;;;;;14.82;9.52;;;20.80;99.90;;;;;;5071577;28;20180;-44
2023/09/10 01:51:38;;;;;;;13.00;9.00;;;20.80;99.90;;;;;;5071675;28;20165;-44
2023/09/10 01:54:04;;;;;;;17.60;9.75;;;20.80;99.90;;;;;;5071207;28;20188;-44
2023/09/10 01:56:29;;;;;;;16.73;8.68;;;20.80;99.90;;;;;;5071184;28;20204;-44
2023/09/10 01:58:55;;;;;;;12.80;8.10;;;20.80;99.90;;;;;;5071158;28;20248;-45
2023/09/10 02:01:20;;;;;;;15.02;8.93;;;20.70;99.90;;;;;;5071320;28;20177;-45
2023/09/10 02:03:46;;;;;;;14.80;8.65;;;;;;;;;;5071108;28;20166;-44
2023/09/10 02:06:12;;;;;;;24.83;9.70;;;20.70;99.90;;;;;;5070997;28;20209;-44
2023/09/10 02:08:37;;;;;;;18.15;8.95;;;20.70;99.90;;;;;;5071677;28;20166;-44
2023/09/10 02:11:04;;;;;;;16.63;8.15;;;20.70;99.90;;;;;;5071038;28;20646;-45
2023/09/10 02:13:30;;;;;;;9.40;8.23;;;20.50;99.90;;;;;;5071000;28;20162;-44
2023/09/10 02:15:55;;;;;;;18.00;9.98;;;20.50;99.90;;;;;;5071238;28;20181;-45
2023/09/10 02:18:22;;;;;;;12.80;7.93;;;20.50;99.90;;;;;;5071013;28;20635;-45
2023/09/10 02:20:48;;;;;;;13.45;9.35;;;20.50;99.90;;;;;;5070847;28;20174;-44
2023/09/10 02:23:13;;;;;;;13.90;9.23;;;20.40;99.90;;;;;;5070987;28;20188;-45
2023/09/10 02:25:39;;;;;;;13.43;9.32;;;20.40;99.90;;;;;;5071310;28;20205;-44
2023/09/10 02:28:05;;;;;;;16.23;9.68;;;;;;;;;;5070911;28;20172;-44
2023/09/10 02:30:30;;;;;;;14.73;10.05;;;20.40;99.90;;;;;;5070892;28;20591;-44
2023/09/10 02:32:56;;;;;;;16.05;9.90;;;20.40;99.90;;;;;;5070841;28;20166;-44
2023/09/10 02:35:22;;;;;;;12.13;8.73;;;20.40;99.90;;;;;;5070866;28;20178;-44
2023/09/10 02:37:48;;;;;;;10.27;8.95;;;20.40;99.90;;;;;;5071131;28;20265;-44
2023/09/10 02:40:13;;;;;;;14.98;9.38;;;20.40;99.90;;;;;;5071517;28;20208;-44
2023/09/10 02:42:39;;;;;;;13.13;8.85;;;20.40;99.90;;;;;;5074912;28;20568;-45
2023/09/10 02:45:06;;;;;;;18.20;9.02;;;20.40;99.90;;;;;;5074242;28;20210;-44
2023/09/10 02:47:31;;;;;;;14.38;8.50;;;20.30;99.90;;;;;;5074309;28;20257;-45
2023/09/10 02:49:57;;;;;;;17.92;10.30;;;20.20;99.90;;;;;;5074300;28;20248;-44
2023/09/10 02:52:26;;;;;;;12.95;9.30;;;20.30;99.90;;;;;;5074505;28;20170;-44
2023/09/10 02:54:52;;;;;;;15.30;9.02;;;20.30;99.90;;;;;;5074256;28;20170;-44
2023/09/10 02:57:17;;;;;;;19.88;10.32;;;20.20;99.90;;;;;;5074131;28;20220;-44
2023/09/10 02:59:43;;;;;;;16.05;10.23;;;20.20;99.90;;;;;;5072869;28;20243;-44
2023/09/10 03:02:09;;;;;;;11.32;9.40;;;20.40;99.90;;;;;;5074476;28;20176;-45
2023/09/10 03:04:34;;;;;;;12.10;9.32;;;20.30;99.90;;;;;;5073972;28;20158;-45
2023/09/10 03:07:03;;;;;;;13.55;10.05;;;20.20;99.90;;;;;;5074318;28;20174;-44
2023/09/10 03:09:28;;;;;;;16.55;10.48;;;20.20;99.90;;;;;;5073992;28;20245;-44
2023/09/10 03:12:21;;;;;;;13.43;8.82;;;20.20;99.90;;;;;;5073861;28;20253;-44
2023/09/10 03:14:46;;;;;;;18.60;10.18;;;20.20;99.90;;;;;;5073778;28;20170;-44
2023/09/10 03:17:12;;;;;;;18.83;10.15;;;20.20;99.90;;;;;;5074074;28;20176;-44
2023/09/10 03:19:37;;;;;;;16.45;10.43;;;20.20;99.90;;;;;;5074236;28;20181;-44
2023/09/10 03:22:03;;;;;;;17.08;8.90;;;20.30;99.90;;;;;;5073646;28;20162;-44
2023/09/10 03:24:29;;;;;;;16.27;11.18;;;20.20;99.90;;;;;;5073631;28;20177;-44
2023/09/10 03:26:55;;;;;;;13.75;9.95;;;20.20;99.90;;;;;;5073725;28;20189;-44
2023/09/10 03:29:20;;;;;;;17.00;10.38;;;20.20;99.90;;;;;;5073729;28;20162;-45
2023/09/10 03:31:46;;;;;;;19.48;9.60;;;20.20;99.90;;;;;;5073641;28;20542;-44
2023/09/10 03:34:11;;;;;;;15.75;10.20;;;20.10;99.90;;;;;;5073618;28;20208;-45
2023/09/10 03:36:37;;;;;;;17.65;10.63;;;20.00;99.90;;;;;;5073840;28;20204;-44
2023/09/10 03:39:03;;;;;;;12.00;9.40;;;20.00;99.90;;;;;;5073416;28;20187;-44
2023/09/10 03:41:29;;;;;;;12.55;9.52;;;20.10;99.90;;;;;;5073381;28;20170;-44
2023/09/10 03:43:56;;;;;;;15.55;10.07;;;20.10;99.90;;;;;;5073290;28;20507;-44
2023/09/10 03:46:22;;;;;;;13.35;10.00;;;20.10;99.90;;;;;;5073493;28;20226;-44
2023/09/10 03:48:47;;;;;;;16.33;10.55;;;20.00;99.90;;;;;;5073238;28;20158;-44
2023/09/10 03:51:13;;;;;;;16.02;10.55;;;20.00;99.90;;;;;;5072930;28;20244;-44
2023/09/10 03:53:38;;;;;;;12.40;10.50;;;20.00;99.90;;;;;;5073503;28;20245;-44
2023/09/10 03:56:04;;;;;;;17.02;10.55;;;20.10;99.90;;;;;;5073092;28;20535;-45
2023/09/10 03:58:29;;;;;;;18.65;10.85;;;20.10;99.90;;;;;;5073076;28;20681;-44
2023/09/10 04:00:55;;;;;;;15.50;10.43;;;20.10;99.90;;;;;;5072993;28;20170;-45
2023/09/10 04:03:20;;;;;;;17.83;11.13;;;20.00;99.90;;;;;;5072953;28;20170;-45
2023/09/10 04:05:46;;;;;;;16.35;10.48;;;20.00;99.90;;;;;;5072995;28;20208;-45
2023/09/10 04:08:12;;;;;;;13.80;11.20;;;20.00;99.90;;;;;;5072873;28;20210;-44
2023/09/10 04:10:37;;;;;;;19.40;11.13;;;20.00;99.90;;;;;;5073195;28;20244;-44
2023/09/10 04:13:04;;;;;;;13.82;11.00;;;20.00;99.90;;;;;;5072593;28;20184;-44
2023/09/10 04:15:29;;;;;;;13.63;10.13;;;20.00;99.90;;;;;;5072707;28;20196;-44
2023/09/10 04:17:55;;;;;;;15.70;9.93;;;20.00;99.90;;;;;;5072654;28;20631;-44
2023/09/10 04:20:21;;;;;;;14.85;10.20;;;19.90;99.90;;;;;;5072572;28;20538;-44
2023/09/10 04:22:47;;;;;;;13.48;10.50;;;19.90;99.90;;;;;;5072801;28;20170;-44
2023/09/10 04:25:12;;;;;;;15.30;11.45;;;19.90;99.90;;;;;;5072624;28;20209;-44
2023/09/10 04:27:38;;;;;;;17.02;11.05;;;19.90;99.90;;;;;;5072811;28;20244;-45
2023/09/10 04:30:04;;;;;;;16.95;11.82;;;19.90;99.90;;;;;;5072369;28;20244;-44
2023/09/10 04:32:30;;;;;;;15.55;11.45;;;19.80;99.90;;;;;;5072600;28;20219;-44
2023/09/10 04:34:55;;;;;;;15.70;11.02;;;19.70;99.90;;;;;;5072395;28;20166;-45
2023/09/10 04:37:21;;;;;;;15.23;11.32;;;19.80;99.90;;;;;;5072348;28;20622;-45
2023/09/10 04:39:46;;;;;;;16.15;10.13;;;19.80;99.90;;;;;;5072166;28;20173;-44
2023/09/10 04:42:12;;;;;;;12.48;10.77;;;19.80;99.90;;;;;;5072181;28;20192;-44
2023/09/10 04:44:37;;;;;;;16.08;10.45;;;19.80;99.90;;;;;;5072293;28;20214;-44
2023/09/10 04:47:03;;;;;;;15.63;10.55;;;19.80;99.90;;;;;;5072081;28;20173;-44
2023/09/10 04:49:29;;;;;;;11.57;9.77;;;19.80;99.90;;;;;;5072329;28;20394;-45
2023/09/10 04:51:55;;;;;;;15.93;10.15;;;19.80;99.90;;;;;;5071914;28;20166;-45
2023/09/10 04:54:20;;;;;;;15.00;9.90;;;19.80;99.90;;;;;;5071964;28;20526;-45
2023/09/10 04:56:47;;;;;;;15.10;10.50;;;19.80;99.90;;;;;;5071900;28;20181;-44
2023/09/10 04:59:13;;;;;;;15.00;11.10;;;19.80;99.90;;;;;;5071843;28;20181;-44
2023/09/10 05:01:39;;;;;;;15.88;12.50;;;19.80;99.90;;;;;;5072259;28;20173;-46
2023/09/10 05:04:05;;;;;;;14.23;12.43;;;19.90;99.90;;;;;;5070352;28;20534;-44
2023/09/10 05:06:30;;;;;;;19.58;14.68;;;20.00;99.90;;;;;;5071688;28;20698;-47
2023/09/10 05:08:56;;;;;;;18.77;16.52;;;20.00;99.90;;;;;;5071709;28;20170;-46
2023/09/10 05:11:21;;;;;;;21.40;17.02;;;20.00;99.90;;;;;;5071739;28;20166;-45
2023/09/10 05:13:47;;;;;;;21.00;17.23;;;20.00;99.90;;;;;;5071758;28;20170;-45
2023/09/10 05:16:12;;;;;;;25.38;19.65;;;20.00;99.90;;;;;;5071999;28;20170;-45
2023/09/10 05:18:38;;;;;;;26.92;19.85;;;20.00;99.90;;;;;;5072039;28;20269;-45
2023/09/10 05:21:03;;;;;;;24.80;20.20;;;20.10;99.90;;;;;;5071564;28;20598;-45
2023/09/10 05:23:29;;;;;;;26.67;20.27;;;20.10;99.90;;;;;;5071559;28;20212;-46
2023/09/10 05:25:55;;;;;;;24.90;19.48;;;20.20;99.90;;;;;;5071730;28;20214;-45
2023/09/10 05:28:21;;;;;;;25.55;19.63;;;20.20;99.90;;;;;;5071474;28;20177;-45
2023/09/10 05:30:47;;;;;;;24.90;19.40;;;20.30;99.90;;;;;;5071426;28;20257;-45
2023/09/10 05:33:12;;;;;;;22.85;18.20;;;20.30;99.90;;;;;;5071362;28;20705;-45
2023/09/10 05:35:38;;;;;;;26.38;17.98;;;20.40;99.90;;;;;;5071819;28;20178;-46
2023/09/10 05:38:04;;;;;;;23.08;18.95;;;20.40;99.90;;;;;;5071434;28;20166;-45
2023/09/10 05:40:36;;;;;;;28.40;18.63;;;20.30;99.90;;;;;;5071602;28;20296;-44
2023/09/10 05:43:03;;;;;;;22.27;17.25;;;20.30;99.90;;;;;;5071509;28;20172;-45
2023/09/10 05:45:30;;;;;;;23.05;16.88;;;20.30;99.90;;;;;;5070670;28;20217;-45
2023/09/10 05:47:56;;;;;;;26.00;17.33;;;20.40;99.90;;;;;;5071285;28;20166;-46
2023/09/10 05:50:21;;;;;;;22.02;16.77;;;20.40;99.90;;;;;;5071314;28;20530;-45
2023/09/10 05:52:47;;;;;;;22.17;15.73;;;20.50;99.90;;;;;;5071451;28;20172;-45
2023/09/10 05:55:13;;;;;;;20.75;16.27;;;20.40;99.90;;;;;;5071234;28;20162;-45
2023/09/10 05:57:38;;;;;;;23.27;16.23;;;20.50;99.90;;;;;;5071579;28;20174;-44
2023/09/10 06:00:04;;;;;;;22.33;15.82;;;20.50;99.90;;;;;;5071132;28;20172;-44
2023/09/10 06:02:30;;;;;;;25.95;16.20;;;20.60;99.90;;;;;;5071123;28;20248;-45
2023/09/10 06:04:55;;;;;;;23.23;15.63;;;20.60;99.90;;;;;;5071001;28;20189;-45
2023/09/10 06:07:21;;;;;;;24.27;15.98;;;20.70;99.90;;;;;;5069877;28;20635;-44
2023/09/10 06:09:46;;;;;;;19.10;15.63;;;20.70;99.90;;;;;;5071140;28;20678;-45
2023/09/10 06:12:12;;;;;;;24.75;16.05;;;20.80;99.90;;;;;;5069771;28;20165;-45
2023/09/10 06:14:37;;;;;;;21.20;14.45;;;20.70;99.90;;;;;;5073160;28;20166;-46
2023/09/10 06:17:03;;;;;;;28.55;16.52;;;20.80;99.90;;;;;;5075062;28;20166;-45
2023/09/10 06:19:28;;;;;;;21.10;14.68;;;20.80;99.90;;;;;;5074979;28;20754;-45
2023/09/10 06:21:54;;;;;;;20.25;14.35;;;20.90;99.90;;;;;;5074857;28;20189;-45
2023/09/10 06:24:19;;;;;;;18.48;14.70;;;21.00;99.90;;;;;;5075084;28;20173;-45
2023/09/10 06:26:45;;;;;;;21.80;15.20;;;21.00;99.90;;;;;;5074705;28;20209;-44
2023/09/10 06:29:11;;;;;;;21.58;14.80;;;21.10;99.90;;;;;;5075095;28;20529;-44
2023/09/10 06:31:37;;;;;;;21.05;14.70;;;21.30;99.90;;;;;;5075318;28;20227;-45
2023/09/10 06:34:04;;;;;;;23.55;15.23;;;21.20;99.90;;;;;;5074795;28;20170;-46
2023/09/10 06:36:30;;;;;;;21.13;14.68;;;21.40;99.90;;;;;;5074803;28;20563;-44
2023/09/10 06:38:56;;;;;;;18.52;14.82;;;21.40;99.90;;;;;;5074540;28;20327;-45
2023/09/10 06:41:21;;;;;;;18.15;14.35;;;21.60;99.90;;;;;;5074515;28;20166;-44
2023/09/10 06:43:47;;;;;;;28.70;13.82;;;21.60;99.90;;;;;;5074442;28;20256;-45
2023/09/10 06:46:12;;;;;;;20.27;13.90;;;21.70;99.90;;;;;;5072854;28;20237;-44
2023/09/10 06:48:38;;;;;;;18.80;13.02;;;21.80;99.90;;;;;;5074871;28;20166;-45
2023/09/10 06:51:04;;;;;;;21.08;13.82;;;21.90;99.90;;;;;;5074762;28;20180;-46
2023/09/10 06:53:30;;;;;;;19.10;13.85;;;21.90;99.90;;;;;;5073843;28;20640;-44
2023/09/10 06:55:57;;;;;;;19.23;13.50;;;22.00;99.90;;;;;;5074217;28;20166;-46
2023/09/10 06:58:22;;;;;;;25.45;12.85;;;22.10;99.90;;;;;;5074172;28;20525;-44
2023/09/10 07:00:48;;;;;;;16.70;13.55;;;22.20;99.90;;;;;;5073863;28;20174;-44
2023/09/10 07:03:14;;;;;;;20.02;13.00;;;22.30;99.90;;;;;;5074084;28;20166;-45
2023/09/10 07:05:41;;;;;;;17.83;12.00;;;22.30;99.90;;;;;;5073940;28;20201;-45
2023/09/10 07:08:08;;;;;;;22.63;11.95;;;22.30;99.90;;;;;;5074041;28;20635;-46
2023/09/10 07:10:34;;;;;;;20.90;13.38;;;22.50;99.90;;;;;;5073978;28;20201;-47
2023/09/10 07:13:05;;;;;;;18.55;12.13;;;22.60;99.90;;;;;;5072989;28;20205;-48
2023/09/10 07:15:34;;;;;;;15.90;12.25;;;22.80;99.90;;;;;;5073591;28;20197;-47
2023/09/10 07:17:59;;;;;;;16.63;11.63;;;22.80;99.90;;;;;;5073873;28;20174;-47
2023/09/10 07:20:25;;;;;;;19.25;11.90;;;23.00;99.90;;;;;;5073777;28;20166;-47
2023/09/10 07:22:50;;;;;;;15.77;12.20;;;23.10;99.90;;;;;;5073654;28;20231;-49
2023/09/10 07:25:16;;;;;;;17.50;11.93;;;23.20;99.90;;;;;;5073525;28;20209;-47
2023/09/10 07:27:41;;;;;;;15.68;12.50;;;23.30;99.90;;;;;;5073143;28;20566;-47
2023/09/10 07:30:07;;;;;;;13.80;12.13;;;23.50;99.90;;;;;;5073963;28;20635;-47
2023/09/10 07:32:33;;;;;;;19.48;11.98;;;23.50;99.90;;;;;;5073564;28;20647;-47
2023/09/10 07:34:59;;;;;;;16.58;11.90;;;23.50;99.90;;;;;;5073577;28;21047;-48
2023/09/10 07:37:24;;;;;;;18.65;12.32;;;23.70;99.90;;;;;;5073453;28;20170;-47
2023/09/10 07:39:50;;;;;;;18.67;12.27;;;23.70;99.90;;;;;;5073425;28;20166;-47
2023/09/10 07:42:16;;;;;;;18.35;11.70;;;23.80;99.90;;;;;;5072871;28;20527;-44
2023/09/10 07:44:42;;;;;;;16.08;11.48;;;;;;;;;;5072652;28;20686;-46
2023/09/10 07:47:08;;;;;;;15.77;10.82;;;24.00;99.90;;;;;;5073081;28;20170;-45
2023/09/10 07:49:34;;;;;;;19.48;11.50;;;24.10;99.90;;;;;;5073499;28;20248;-44
2023/09/10 07:52:03;;;;;;;16.08;9.93;;;24.30;99.90;;;;;;5073241;28;20201;-45
2023/09/10 07:54:29;;;;;;;13.57;10.80;;;24.40;99.90;;;;;;5073041;28;20244;-44
2023/09/10 07:56:54;;;;;;;17.58;10.38;;;24.10;99.90;;;;;;5072795;28;20199;-45
2023/09/10 07:59:20;;;;;;;15.05;11.32;;;24.30;99.90;;;;;;5071832;28;20690;-44
2023/09/10 08:01:45;;;;;;;16.80;10.60;;;24.40;99.90;;;;;;5072527;28;20638;-44
2023/09/10 08:04:11;;;;;;;17.75;10.95;;;24.50;99.90;;;;;;5072978;28;20572;-45
2023/09/10 08:06:36;;;;;;;14.15;10.15;;;24.60;99.90;;;;;;5073087;28;20251;-44
2023/09/10 08:09:02;;;;;;;16.38;10.00;;;24.70;99.90;;;;;;5072804;28;20173;-44
2023/09/10 08:11:27;;;;;;;15.32;9.80;;;24.80;99.90;;;;;;5072148;28;20688;-44
2023/09/10 08:13:53;;;;;;;17.08;10.20;;;24.90;99.90;;;;;;5071405;28;20166;-44
2023/09/10 08:16:19;;;;;;;14.90;9.38;;;25.00;99.90;;;;;;5072178;28;20529;-44
2023/09/10 08:18:45;;;;;;;14.43;10.52;;;25.10;99.90;;;;;;5072061;28;20173;-44
2023/09/10 08:21:11;;;;;;;16.40;10.45;;;;;;;;;;5072180;28;20161;-44
2023/09/10 08:23:37;;;;;;;17.35;10.18;;;25.30;99.90;;;;;;5072192;28;20641;-44
2023/09/10 08:26:02;;;;;;;14.38;9.93;;;25.30;99.90;;;;;;5072529;28;20292;-44
2023/09/10 08:28:28;;;;;;;16.13;9.75;;;25.30;99.90;;;;;;5070859;28;20177;-44
2023/09/10 08:30:54;;;;;;;15.57;8.85;;;25.40;99.90;;;;;;5071159;28;20218;-44
2023/09/10 08:33:25;;;;;;;15.95;9.35;;;25.60;99.90;;;;;;5071471;28;20185;-44
2023/09/10 08:35:51;;;;;;;14.55;9.38;;;25.70;99.90;;;;;;5072533;28;20177;-45
2023/09/10 08:38:17;;;;;;;17.63;9.95;;;25.60;99.90;;;;;;5071327;28;20541;-44
2023/09/10 08:40:56;;;;;;;13.60;8.93;;;25.90;99.90;;;;;;5072473;28;20169;-44
2023/09/10 08:43:31;;;;;;;17.95;9.40;;;26.00;99.90;;;;;;5072382;28;20173;-44
2023/09/10 08:45:57;;;;;;;12.90;8.98;;;26.10;99.90;;;;;;5071768;28;20610;-44
2023/09/10 08:48:24;;;;;;;14.73;8.85;;;26.20;99.90;;;;;;5071254;28;20176;-45
2023/09/10 08:50:50;;;;;;;17.27;9.52;;;26.70;99.90;;;;;;5071602;28;20173;-44
2023/09/10 08:53:17;;;;;;;14.93;8.95;;;26.40;99.90;;;;;;5071401;28;20244;-44
2023/09/10 08:55:44;;;;;;;14.82;9.20;;;26.60;99.90;;;;;;5072213;28;20261;-45
2023/09/10 08:58:13;;;;;;;10.85;8.88;;;26.70;99.90;;;;;;5071598;28;20168;-45
2023/09/10 09:00:40;;;;;;;16.10;9.07;;;26.80;99.90;;;;;;5071627;28;20695;-44
2023/09/10 09:03:06;;;;;;;16.52;8.30;;;26.80;99.90;;;;;;5071970;28;20525;-44
2023/09/10 09:05:34;;;;;;;11.02;7.90;;;27.00;99.90;;;;;;5071356;28;20205;-43
2023/09/10 09:08:10;;;;;;;18.10;8.73;;;27.00;99.90;;;;;;5071191;28;20541;-45
2023/09/10 09:10:35;;;;;;;18.42;9.10;;;26.90;99.90;;;;;;5071954;28;20260;-44
2023/09/10 09:13:07;;;;;;;14.00;8.05;;;27.20;99.90;;;;;;5071924;28;20172;-46
2023/09/10 09:15:37;;;;;;;16.77;8.95;;;27.20;99.90;;;;;;5071025;28;20256;-44
2023/09/10 09:18:03;;;;;;;16.13;8.02;;;;;;;;;;5071036;28;20248;-44
2023/09/10 09:20:31;;;;;;;13.57;8.52;;;27.30;99.90;;;;;;5071267;28;20622;-45
2023/09/10 09:23:06;;;;;;;20.02;7.90;;;27.30;99.90;;;;;;5071157;28;20635;-44
2023/09/10 09:25:34;;;;;;;13.35;7.38;;;27.50;99.90;;;;;;5071206;28;20261;-45
2023/09/10 09:28:02;;;;;;;16.20;7.30;;;27.70;99.90;;;;;;5071060;28;20231;-44
2023/09/10 09:30:28;;;;;;;16.00;7.40;;;;;;;;;;5071050;28;20527;-45
2023/09/10 09:32:56;;;;;;;16.27;6.82;;;27.70;99.90;;;;;;5070691;28;20626;-44
2023/09/10 09:35:22;;;;;;;15.88;6.13;;;;;;;;;;5071152;28;20174;-48
2023/09/10 09:37:47;;;;;;;15.50;7.05;;;27.70;99.90;;;;;;5103891;28;20658;-45
2023/09/10 09:40:18;;;;;;;18.10;6.88;;;27.90;99.90;;;;;;5071294;28;20180;-44
2023/09/10 09:42:44;;;;;;;12.57;6.40;;;28.10;99.90;;;;;;5070956;28;20184;-44
2023/09/10 09:45:10;;;;;;;14.60;7.13;;;28.30;99.90;;;;;;5070791;28;20307;-44
2023/09/10 09:47:36;;;;;;;9.18;6.22;;;28.30;99.90;;;;;;5071491;28;20245;-45
2023/09/10 09:50:03;;;;;;;12.75;5.88;;;28.30;99.90;;;;;;5074912;28;20196;-44
2023/09/10 09:52:29;;;;;;;13.23;6.20;;;28.40;99.90;;;;;;5078150;28;20177;-44
2023/09/10 09:54:55;;;;;;;12.77;6.25;;;;;;;;;;5077849;28;20161;-44
2023/09/10 09:57:20;;;;;;;9.52;5.80;;;28.50;99.90;;;;;;5077893;28;20509;-44
2023/09/10 09:59:49;;;;;;;13.05;6.00;;;28.60;99.90;;;;;;5077831;28;20219;-44
2023/09/10 10:02:17;;;;;;;17.25;6.40;;;28.70;99.90;;;;;;5077789;28;20165;-45
2023/09/10 10:04:43;;;;;;;15.38;6.28;;;29.00;99.90;;;;;;5077636;28;20244;-44
2023/09/10 10:07:11;;;;;;;14.82;5.88;;;29.20;99.90;;;;;;5078206;28;20169;-44
2023/09/10 10:09:38;;;;;;;12.23;5.78;;;29.20;99.90;;;;;;5078140;28;20157;-44
2023/09/10 10:12:05;;;;;;;16.23;5.85;;;29.10;99.90;;;;;;5077768;28;20161;-45
2023/09/10 10:14:35;;;;;;;18.95;5.82;;;29.20;99.90;;;;;;5077446;28;20532;-45
2023/09/10 10:17:03;;;;;;;13.73;6.15;;;29.30;99.90;;;;;;5077081;28;20201;-45
2023/09/10 10:19:30;;;;;;;14.05;6.05;;;29.40;99.90;;;;;;5077253;28;20165;-45
2023/09/10 10:21:56;;;;;;;11.93;5.45;;;29.50;99.90;;;;;;5077168;28;20165;-44
2023/09/10 10:24:23;;;;;;;11.95;5.18;;;;;;;;;;5077346;28;20162;-44
2023/09/10 10:26:49;;;;;;;10.55;5.50;;;29.60;99.90;;;;;;5077176;28;20201;-44
2023/09/10 10:29:17;;;;;;;11.07;5.15;;;29.70;99.90;;;;;;5077350;28;20165;-44
2023/09/10 10:31:47;;;;;;;11.40;4.82;;;29.80;99.90;;;;;;5077067;28;20168;-44
2023/09/10 10:34:23;;;;;;;14.93;5.50;;;29.90;99.90;;;;;;5077134;28;20173;-44
2023/09/10 10:36:54;;;;;;;15.27;5.78;;;29.80;99.90;;;;;;5077229;28;20723;-44
2023/09/10 10:39:31;;;;;;;11.82;5.53;;;29.90;99.90;;;;;;5077318;28;20252;-44
2023/09/10 10:42:00;;;;;;;13.95;6.00;;;29.90;99.90;;;;;;5077348;28;20162;-45
2023/09/10 10:44:35;;;;;;;10.23;5.53;;;29.80;99.90;;;;;;5077158;28;20213;-44
2023/09/10 10:47:11;;;;;;;13.25;5.18;;;30.00;99.90;;;;;;5077118;28;20185;-45
2023/09/10 10:49:41;;;;;;;11.60;6.07;;;30.00;99.90;;;;;;5077245;28;20161;-44
2023/09/10 10:52:10;;;;;;;10.80;5.63;;;30.10;99.90;;;;;;5077305;28;20248;-45
2023/09/10 10:54:38;;;;;;;12.13;5.68;;;30.10;99.90;;;;;;5077550;28;20219;-46
2023/09/10 10:57:06;;;;;;;8.93;5.60;;;30.20;99.90;;;;;;5076442;28;20179;-48
2023/09/10 10:59:32;;;;;;;10.38;5.43;;;30.30;99.90;;;;;;5077082;28;20660;-49
2023/09/10 11:02:15;;;;;;;10.77;6.10;;;30.20;99.90;;;;;;5073340;28;20171;-49
2023/09/10 11:05:01;;;;;;;16.73;5.75;;;30.40;99.90;;;;;;5073291;28;20635;-50
2023/09/10 11:07:29;;;;;;;12.98;6.13;;;30.50;99.90;;;;;;5073252;28;20634;-49
2023/09/10 11:09:57;;;;;;;11.63;5.10;;;30.50;99.90;;;;;;5073598;28;20173;-49
2023/09/10 11:12:22;;;;;;;9.35;5.20;;;30.50;99.90;;;;;;5073121;28;20170;-47
2023/09/10 11:15:00;;;;;;;13.20;5.47;;;30.70;99.90;;;;;;5073355;28;20606;-47
2023/09/10 11:17:29;;;;;;;9.48;5.40;;;30.80;99.90;;;;;;5073544;28;20169;-49
2023/09/10 11:19:55;;;;;;;11.40;5.20;;;30.80;99.90;;;;;;5073595;28;20565;-48
2023/09/10 11:22:21;;;;;;;11.70;5.10;;;30.90;99.90;;;;;;5073513;28;20173;-47
2023/09/10 11:25:08;;;;;;;7.38;5.05;;;31.00;99.90;;;;;;5073418;28;20207;-49
2023/09/10 11:27:34;;;;;;;14.43;5.70;;;30.90;99.90;;;;;;5073457;28;20165;-49
2023/09/10 11:30:04;;;;;;;14.23;5.25;;;31.00;99.90;;;;;;5072946;28;20173;-49
2023/09/10 11:32:30;;;;;;;9.40;5.47;;;31.10;99.90;;;;;;5073247;28;20170;-48
2023/09/10 11:35:17;;;;;;;12.35;5.00;;;31.10;99.90;;;;;;5073162;28;20700;-49
2023/09/10 11:37:49;;;;;;;14.45;5.65;;;31.20;99.90;;;;;;5073160;28;20529;-47
2023/09/10 11:40:17;;;;;;;19.00;5.90;;;31.10;99.90;;;;;;5073086;28;20174;-49
2023/09/10 11:42:44;;;;;;;16.58;5.15;;;31.10;99.90;;;;;;5072923;28;20908;-48
2023/09/10 11:45:11;;;;;;;15.55;6.15;;;;;;;;;;5073138;28;20260;-47
2023/09/10 11:47:43;;;;;;;18.17;6.22;;;31.30;99.90;;;;;;5073619;28;20173;-47
2023/09/10 11:50:11;;;;;;;15.07;5.80;;;31.20;99.90;;;;;;5073953;28;20532;-50
2023/09/10 11:52:37;;;;;;;11.60;5.78;;;31.20;99.90;;;;;;5073645;28;20169;-48
2023/09/10 11:55:09;;;;;;;8.38;5.78;;;31.10;99.90;;;;;;5073087;28;20177;-50
2023/09/10 11:57:35;;;;;;;9.10;5.38;;;31.40;99.90;;;;;;5073030;28;20162;-47
2023/09/10 12:00:01;;;;;;;11.98;5.40;;;31.30;99.90;;;;;;5073052;28;20166;-46
2023/09/10 12:02:27;;;;;;;12.38;6.03;;;;;;;;;;5073286;28;20554;-45
2023/09/10 12:04:52;;;;;;;16.08;5.80;;;31.40;99.90;;;;;;5073101;28;20168;-46
2023/09/10 12:07:19;;;;;;;14.05;5.88;;;31.40;99.90;;;;;;5072940;28;20530;-44
2023/09/10 12:09:44;;;;;;;16.38;5.90;;;31.60;99.90;;;;;;5072876;28;20173;-44
2023/09/10 12:12:32;;;;;;;13.18;5.82;;;31.50;99.90;;;;;;5072652;28;20165;-46
2023/09/10 12:14:58;;;;;;;9.23;5.65;;;31.10;99.90;;;;;;5072550;28;20173;-46
2023/09/10 12:17:24;;;;;;;10.85;6.38;;;30.80;99.90;;;;;;5073145;28;20165;-47
2023/09/10 12:19:51;;;;;;;14.27;5.88;;;;;;;;;;5072597;28;20503;-46
2023/09/10 12:22:19;;;;;;;10.35;5.97;;;31.20;99.90;;;;;;5072662;28;20169;-46
2023/09/10 12:24:45;;;;;;;12.65;6.10;;;31.40;99.90;;;;;;5072586;28;20529;-45
2023/09/10 12:27:13;;;;;;;9.32;6.25;;;31.30;99.90;;;;;;5070877;28;20185;-47
2023/09/10 12:29:42;;;;;;;14.00;6.57;;;31.40;99.90;;;;;;5072698;28;20211;-46
2023/09/10 12:32:08;;;;;;;14.32;5.72;;;31.60;99.90;;;;;;5072811;28;20231;-45
2023/09/10 12:34:33;;;;;;;14.45;5.60;;;31.50;99.90;;;;;;5070742;28;20166;-45
2023/09/10 12:36:59;;;;;;;11.63;6.20;;;31.60;99.90;;;;;;5072197;28;20161;-46
2023/09/10 12:39:26;;;;;;;12.48;6.65;;;31.60;99.90;;;;;;5071166;28;20279;-49